Time;durP1;ratioP1;P1;durP2;ratioP2;P2;SDS_P1;SDS_P2;PMS_P1;PMS_P2;Temp;Humidity;BMP_temperature;BMP_pressure;BME280_temperature;BME280_humidity;BME280_pressure;Samples;Min_cycle;Max_cycle;Signal;HPM_P1;HPM_P2
2022/05/07 00:02:07;;;;;;;44.33;28.92;;;13.50;99.90;;;;;;5044997;28;20060;-79
2022/05/07 00:04:37;;;;;;;46.20;29.80;;;13.50;99.90;;;;;;5047216;28;20049;-80
2022/05/07 00:07:06;;;;;;;41.80;29.00;;;13.60;99.90;;;;;;5043547;28;20484;-81
2022/05/07 00:09:32;;;;;;;50.28;31.55;;;13.60;99.90;;;;;;5033833;28;20098;-81
2022/05/07 00:11:58;;;;;;;44.10;29.00;;;13.60;99.90;;;;;;5049897;28;20045;-81
2022/05/07 00:14:24;;;;;;;50.25;29.83;;;13.50;99.90;;;;;;5035181;28;20053;-81
2022/05/07 00:19:34;;;;;;;47.45;30.02;;;13.60;99.90;;;;;;5059048;28;20442;-80
2022/05/07 00:22:00;;;;;;;42.35;28.27;;;13.60;99.90;;;;;;5061149;28;20093;-81
2022/05/07 00:24:26;;;;;;;43.88;29.30;;;13.60;99.90;;;;;;5046185;28;20072;-80
2022/05/07 00:26:52;;;;;;;43.30;28.55;;;13.60;99.90;;;;;;5039335;28;20069;-81
2022/05/07 00:29:17;;;;;;;43.42;29.30;;;13.60;99.90;;;;;;5045070;28;20048;-80
2022/05/07 00:31:43;;;;;;;43.67;28.77;;;13.60;99.90;;;;;;5033564;28;20053;-80
2022/05/07 00:34:09;;;;;;;47.97;30.67;;;13.70;99.90;;;;;;5050575;28;20037;-81
2022/05/07 00:36:34;;;;;;;45.40;30.17;;;13.70;99.90;;;;;;5033077;28;20049;-81
2022/05/07 00:39:00;;;;;;;43.80;28.23;;;13.60;99.90;;;;;;5045948;28;20045;-81
2022/05/07 00:41:26;;;;;;;44.08;27.77;;;13.70;99.90;;;;;;5019145;28;20045;-80
2022/05/07 00:43:52;;;;;;;45.58;28.38;;;13.70;99.90;;;;;;5041692;28;20037;-81
2022/05/07 00:46:24;;;;;;;41.00;27.83;;;13.70;99.90;;;;;;5050215;28;20065;-81
2022/05/07 00:48:50;;;;;;;45.03;28.63;;;13.60;99.90;;;;;;5048080;28;20041;-80
2022/05/07 00:51:35;;;;;;;46.97;30.40;;;13.60;99.90;;;;;;5051106;28;20120;-81
2022/05/07 00:54:06;;;;;;;53.42;32.65;;;13.70;99.90;;;;;;5028075;28;20047;-80
2022/05/07 00:56:32;;;;;;;45.40;30.08;;;13.60;99.90;;;;;;5042646;28;20194;-81
2022/05/07 00:58:58;;;;;;;46.42;31.38;;;13.70;99.90;;;;;;5022028;28;20389;-81
2022/05/07 01:01:25;;;;;;;45.97;30.20;;;13.70;99.90;;;;;;5051520;28;20043;-80
2022/05/07 01:03:52;;;;;;;48.28;32.25;;;13.70;99.90;;;;;;5049559;28;20128;-80
2022/05/07 01:06:18;;;;;;;54.45;31.08;;;13.70;99.90;;;;;;5041075;28;20052;-81
2022/05/07 01:08:47;;;;;;;47.05;30.67;;;13.80;99.90;;;;;;5039691;28;20547;-80
2022/05/07 01:11:13;;;;;;;52.35;32.97;;;13.80;99.90;;;;;;5026681;28;20045;-80
2022/05/07 01:13:39;;;;;;;50.55;32.72;;;13.80;99.90;;;;;;5045109;28;20048;-80
2022/05/07 01:16:05;;;;;;;45.83;30.80;;;13.80;99.90;;;;;;5047993;28;20041;-81
2022/05/07 01:18:30;;;;;;;50.67;32.78;;;13.80;99.90;;;;;;5032680;28;20053;-81
2022/05/07 01:20:58;;;;;;;52.83;30.17;;;13.90;99.90;;;;;;5017722;28;20120;-81
2022/05/07 01:23:26;;;;;;;51.28;32.72;;;13.80;99.90;;;;;;5039657;28;20093;-81
2022/05/07 01:25:57;;;;;;;49.53;32.47;;;13.90;99.90;;;;;;5030046;28;20048;-79
2022/05/07 01:28:23;;;;;;;50.92;33.58;;;13.90;99.90;;;;;;5021250;28;20132;-79
2022/05/07 01:30:48;;;;;;;59.00;34.95;;;13.80;99.90;;;;;;5051433;28;20120;-80
2022/05/07 01:33:14;;;;;;;51.63;32.05;;;13.80;99.90;;;;;;5047593;28;20037;-80
2022/05/07 01:35:40;;;;;;;50.22;32.47;;;13.80;99.90;;;;;;5031016;28;20078;-80
2022/05/07 01:38:05;;;;;;;49.95;32.00;;;13.80;99.90;;;;;;5036234;28;20038;-80
2022/05/07 01:40:31;;;;;;;51.40;33.38;;;13.90;99.90;;;;;;5025936;28;20122;-80
2022/05/07 01:42:57;;;;;;;51.95;31.27;;;13.90;99.90;;;;;;5045780;28;20077;-80
2022/05/07 01:45:22;;;;;;;50.00;32.53;;;13.90;99.90;;;;;;5050370;28;20037;-81
2022/05/07 01:50:32;;;;;;;43.47;29.33;;;13.90;99.90;;;;;;5065908;28;20048;-81
2022/05/07 01:52:57;;;;;;;50.67;30.88;;;13.90;99.90;;;;;;5052289;28;20323;-80
2022/05/07 01:55:23;;;;;;;45.33;29.55;;;13.90;99.90;;;;;;5039587;28;20116;-80
2022/05/07 01:57:49;;;;;;;48.53;30.10;;;13.90;99.90;;;;;;5039331;28;20139;-80
2022/05/07 02:00:14;;;;;;;48.13;30.67;;;13.90;99.90;;;;;;5028432;28;20045;-79
2022/05/07 02:02:40;;;;;;;49.33;30.95;;;13.90;99.90;;;;;;5048329;28;20128;-80
2022/05/07 02:05:06;;;;;;;48.13;30.85;;;13.90;99.90;;;;;;5048432;28;20528;-80
2022/05/07 02:07:31;;;;;;;42.92;27.48;;;13.90;99.90;;;;;;5048447;28;20089;-82
2022/05/07 02:09:57;;;;;;;54.85;32.58;;;13.90;99.90;;;;;;5036449;28;20045;-81
2022/05/07 02:12:22;;;;;;;44.47;28.73;;;13.90;99.90;;;;;;5047391;28;20057;-80
2022/05/07 02:14:48;;;;;;;45.13;30.05;;;13.90;99.90;;;;;;5018719;28;20064;-81
2022/05/07 02:17:13;;;;;;;56.38;30.38;;;14.00;99.90;;;;;;5061073;28;20504;-80
2022/05/07 02:19:39;;;;;;;45.47;29.13;;;14.00;99.90;;;;;;5022561;28;20040;-80
2022/05/07 02:22:05;;;;;;;47.55;29.30;;;14.00;99.90;;;;;;5059303;28;20166;-80
2022/05/07 02:24:30;;;;;;;53.88;31.85;;;14.00;99.90;;;;;;5060977;28;20044;-81
2022/05/07 02:26:56;;;;;;;47.38;29.25;;;14.00;99.90;;;;;;5044242;28;20041;-80
2022/05/07 02:29:22;;;;;;;46.33;31.05;;;14.00;99.90;;;;;;5020381;28;20046;-80
2022/05/07 02:32:06;;;;;;;49.80;31.27;;;14.00;99.90;;;;;;5044783;28;20125;-80
2022/05/07 02:34:36;;;;;;;47.25;29.40;;;14.00;99.90;;;;;;5046327;28;20059;-80
2022/05/07 02:37:04;;;;;;;46.50;29.10;;;13.90;99.90;;;;;;5023875;28;20045;-79
2022/05/07 02:39:30;;;;;;;46.58;28.00;;;13.90;99.90;;;;;;5038138;28;20049;-80
2022/05/07 02:44:39;;;;;;;47.03;28.00;;;13.90;99.90;;;;;;5042972;28;20060;-80
2022/05/07 02:47:05;;;;;;;39.22;28.05;;;13.90;99.90;;;;;;5066742;28;20040;-80
2022/05/07 02:49:34;;;;;;;46.17;30.05;;;13.80;99.90;;;;;;5064312;28;20049;-81
2022/05/07 02:52:00;;;;;;;45.90;28.55;;;13.90;99.90;;;;;;5042284;28;20048;-80
2022/05/07 02:54:26;;;;;;;40.88;27.95;;;13.90;99.90;;;;;;5044366;28;20063;-80
2022/05/07 02:56:51;;;;;;;43.97;29.45;;;13.90;99.90;;;;;;5041807;28;20093;-80
2022/05/07 02:59:17;;;;;;;43.38;27.27;;;14.00;99.90;;;;;;5036995;28;20548;-80
2022/05/07 03:01:43;;;;;;;52.92;28.67;;;14.00;99.90;;;;;;5039589;28;20071;-80
2022/05/07 03:04:09;;;;;;;46.05;28.83;;;14.00;99.90;;;;;;5045734;28;20492;-80
2022/05/07 03:06:35;;;;;;;48.03;29.15;;;14.00;99.90;;;;;;5049667;28;20079;-80
2022/05/07 03:09:01;;;;;;;50.85;28.45;;;14.00;99.90;;;;;;5043514;28;20072;-81
2022/05/07 03:11:27;;;;;;;46.65;29.38;;;14.00;99.90;;;;;;5062537;28;20040;-80
2022/05/07 03:13:52;;;;;;;44.83;27.77;;;14.10;99.90;;;;;;5053655;28;20043;-80
2022/05/07 03:16:18;;;;;;;45.03;28.55;;;14.10;99.90;;;;;;5048147;28;20052;-81
2022/05/07 03:18:44;;;;;;;46.05;27.73;;;14.10;99.90;;;;;;5028016;28;20536;-81
2022/05/07 03:21:09;;;;;;;43.25;29.10;;;14.10;99.90;;;;;;5035247;28;20037;-80
2022/05/07 03:23:35;;;;;;;44.28;28.65;;;14.10;99.90;;;;;;5066144;28;20037;-80
2022/05/07 03:26:01;;;;;;;39.60;27.45;;;14.00;99.90;;;;;;5033506;28;20051;-80
2022/05/07 03:28:26;;;;;;;41.67;27.23;;;14.00;99.90;;;;;;5033319;28;20094;-80
2022/05/07 03:30:52;;;;;;;41.60;27.80;;;14.10;99.90;;;;;;5058294;28;20089;-80
2022/05/07 03:33:18;;;;;;;43.08;28.95;;;14.00;99.90;;;;;;5036946;28;20047;-80
2022/05/07 03:35:43;;;;;;;43.38;27.73;;;14.10;99.90;;;;;;5053785;28;20057;-80
2022/05/07 03:38:10;;;;;;;42.90;27.52;;;14.10;99.90;;;;;;5063165;28;20403;-80
2022/05/07 03:40:36;;;;;;;41.90;28.23;;;14.10;99.90;;;;;;5056441;28;20064;-81
2022/05/07 03:43:03;;;;;;;44.92;29.75;;;14.10;99.90;;;;;;5028441;28;20080;-80
2022/05/07 03:45:29;;;;;;;45.08;28.92;;;14.00;99.90;;;;;;5058332;28;20044;-80
2022/05/07 03:47:56;;;;;;;48.60;28.02;;;14.10;99.90;;;;;;5053179;28;20622;-80
2022/05/07 03:50:22;;;;;;;40.00;27.77;;;14.00;99.90;;;;;;5047852;28;20056;-80
2022/05/07 03:55:32;;;;;;;42.20;28.13;;;14.00;99.90;;;;;;5036846;28;20048;-81
2022/05/07 03:57:57;;;;;;;49.67;28.35;;;14.00;99.90;;;;;;5064305;28;20051;-80
2022/05/07 04:00:23;;;;;;;40.55;27.23;;;14.00;99.90;;;;;;5043405;28;20060;-81
2022/05/07 04:02:48;;;;;;;45.85;28.15;;;14.00;99.90;;;;;;5055703;28;20052;-80
2022/05/07 04:05:14;;;;;;;39.40;26.52;;;14.00;99.90;;;;;;5055395;28;20145;-81
2022/05/07 04:07:43;;;;;;;43.50;28.08;;;14.00;99.90;;;;;;5063421;28;20060;-79
2022/05/07 04:10:08;;;;;;;41.17;27.98;;;13.90;99.90;;;;;;5046192;28;20150;-80
2022/05/07 04:12:34;;;;;;;40.65;27.55;;;13.90;99.90;;;;;;5069038;28;20480;-80
2022/05/07 04:15:00;;;;;;;44.60;28.95;;;13.90;99.90;;;;;;5053040;28;20124;-80
2022/05/07 04:17:27;;;;;;;46.45;30.20;;;13.80;99.90;;;;;;5067155;28;20087;-80
2022/05/07 04:19:53;;;;;;;43.45;27.67;;;13.80;99.90;;;;;;5062222;28;20044;-80
2022/05/07 04:22:19;;;;;;;39.13;26.48;;;13.80;99.90;;;;;;5034513;28;20041;-80
2022/05/07 04:24:44;;;;;;;40.75;27.17;;;13.80;99.90;;;;;;5027995;28;20045;-80
2022/05/07 04:27:10;;;;;;;49.63;28.13;;;13.80;99.90;;;;;;5048437;28;20045;-80
2022/05/07 04:29:35;;;;;;;45.63;29.30;;;13.80;99.90;;;;;;5032666;28;20048;-79
2022/05/07 04:32:02;;;;;;;41.33;27.33;;;13.80;99.90;;;;;;5051206;28;20049;-80
2022/05/07 04:34:29;;;;;;;42.33;26.63;;;13.80;99.90;;;;;;5065571;28;20385;-80
2022/05/07 04:36:55;;;;;;;49.80;27.25;;;13.80;99.90;;;;;;5025999;28;20072;-80
2022/05/07 04:39:21;;;;;;;45.38;29.58;;;13.80;99.90;;;;;;5061971;28;20040;-80
2022/05/07 04:41:47;;;;;;;41.97;27.98;;;13.80;99.90;;;;;;5062945;28;20048;-80
2022/05/07 04:44:13;;;;;;;44.60;27.10;;;13.90;99.90;;;;;;5063937;28;20505;-80
2022/05/07 04:46:39;;;;;;;42.20;27.77;;;13.80;99.90;;;;;;5046353;28;20132;-80
2022/05/07 04:49:06;;;;;;;46.30;27.55;;;13.80;99.90;;;;;;5065427;28;20041;-80
2022/05/07 04:51:32;;;;;;;41.00;27.67;;;13.90;99.90;;;;;;5056163;28;20048;-80
2022/05/07 04:53:57;;;;;;;41.95;28.30;;;13.90;99.90;;;;;;5050822;28;20447;-80
2022/05/07 04:56:24;;;;;;;43.15;27.60;;;13.90;99.90;;;;;;5029843;28;20139;-79
2022/05/07 04:58:51;;;;;;;44.38;29.48;;;13.90;99.90;;;;;;5060509;28;20040;-80
2022/05/07 05:01:17;;;;;;;50.42;30.67;;;13.90;99.90;;;;;;5058090;28;20049;-79
2022/05/07 05:03:43;;;;;;;43.88;29.75;;;13.90;99.90;;;;;;5063814;28;20431;-80
2022/05/07 05:06:09;;;;;;;45.10;29.65;;;13.90;99.90;;;;;;5057891;28;20477;-80
2022/05/07 05:08:34;;;;;;;42.22;28.20;;;13.90;99.90;;;;;;5032407;28;20136;-79
2022/05/07 05:11:00;;;;;;;46.00;30.17;;;13.90;99.90;;;;;;5064655;28;20519;-80
2022/05/07 05:13:26;;;;;;;43.08;28.25;;;13.90;99.90;;;;;;5053586;28;20119;-80
2022/05/07 05:15:51;;;;;;;60.95;29.73;;;13.90;99.90;;;;;;5064984;28;20391;-80
2022/05/07 05:18:17;;;;;;;42.10;28.15;;;13.90;99.90;;;;;;5046987;28;20116;-81
2022/05/07 05:20:43;;;;;;;50.78;29.50;;;13.90;99.90;;;;;;5063140;28;20079;-81
2022/05/07 05:23:09;;;;;;;45.85;29.55;;;13.90;99.90;;;;;;5058994;28;20040;-80
2022/05/07 05:25:35;;;;;;;47.70;29.13;;;14.00;99.90;;;;;;5040046;28;20045;-80
2022/05/07 05:28:00;;;;;;;43.00;28.98;;;13.90;99.90;;;;;;5044379;28;20069;-81
2022/05/07 05:30:26;;;;;;;45.80;29.15;;;14.00;99.90;;;;;;5037840;28;20653;-80
2022/05/07 05:32:51;;;;;;;57.35;33.08;;;14.00;99.90;;;;;;5025222;28;20135;-81
2022/05/07 05:35:17;;;;;;;48.85;30.00;;;14.00;99.90;;;;;;5030377;28;20052;-81
2022/05/07 05:37:43;;;;;;;44.10;28.98;;;14.10;99.90;;;;;;5029593;28;20052;-80
2022/05/07 05:40:09;;;;;;;45.55;30.55;;;14.10;99.90;;;;;;5067521;28;20545;-80
2022/05/07 05:42:34;;;;;;;48.92;30.77;;;14.10;99.90;;;;;;5029685;28;20076;-80
2022/05/07 05:45:00;;;;;;;44.53;28.17;;;14.10;99.90;;;;;;5047284;28;20509;-80
2022/05/07 05:47:25;;;;;;;44.92;28.13;;;14.20;99.90;;;;;;5025443;28;20064;-80
2022/05/07 05:49:52;;;;;;;43.67;29.13;;;14.20;99.90;;;;;;5064981;28;20045;-80
2022/05/07 05:52:18;;;;;;;48.35;29.50;;;14.20;99.90;;;;;;5064580;28;20052;-81
2022/05/07 05:54:44;;;;;;;42.92;28.77;;;14.20;99.90;;;;;;5050698;28;20053;-80
2022/05/07 05:57:09;;;;;;;42.20;30.05;;;14.20;99.90;;;;;;5055292;28;21239;-80
2022/05/07 05:59:35;;;;;;;43.35;29.10;;;14.30;99.90;;;;;;5059743;28;20040;-80
2022/05/07 06:02:00;;;;;;;42.53;27.45;;;14.30;99.90;;;;;;5052944;28;20053;-80
2022/05/07 06:04:27;;;;;;;42.90;28.40;;;14.30;99.90;;;;;;5062883;28;20087;-80
2022/05/07 06:06:52;;;;;;;41.45;28.60;;;14.30;99.90;;;;;;5066929;28;20101;-80
2022/05/07 06:09:18;;;;;;;46.15;28.67;;;14.40;99.90;;;;;;5019920;28;20533;-80
2022/05/07 06:11:44;;;;;;;49.58;29.50;;;14.40;99.90;;;;;;5058949;28;20036;-81
2022/05/07 06:14:09;;;;;;;46.92;28.73;;;14.40;99.90;;;;;;5019474;28;20080;-80
2022/05/07 06:16:35;;;;;;;42.28;29.30;;;14.50;99.90;;;;;;5048089;28;20131;-80
2022/05/07 06:19:01;;;;;;;42.28;29.30;;;14.50;99.90;;;;;;5039075;28;20206;-81
2022/05/07 06:21:27;;;;;;;42.67;27.25;;;14.50;99.90;;;;;;5060995;28;20045;-80
2022/05/07 06:23:53;;;;;;;43.75;28.15;;;14.50;99.90;;;;;;5051494;28;20090;-81
2022/05/07 06:29:03;;;;;;;34.30;25.65;;;14.60;99.90;;;;;;5018458;28;20045;-81
2022/05/07 06:31:30;;;;;;;34.95;25.23;;;15.00;99.90;;;;;;5036954;28;20059;-81
2022/05/07 06:33:56;;;;;;;38.25;27.02;;;14.70;99.90;;;;;;5012359;28;20065;-81
2022/05/07 06:36:21;;;;;;;40.10;28.13;;;14.60;99.90;;;;;;5024977;28;20048;-81
2022/05/07 06:38:47;;;;;;;36.97;25.30;;;14.70;99.90;;;;;;5020036;28;20050;-81
2022/05/07 06:41:12;;;;;;;35.85;27.40;;;14.80;99.90;;;;;;5017395;28;20190;-81
2022/05/07 06:43:39;;;;;;;36.92;27.05;;;14.80;99.90;;;;;;5019780;28;20680;-81
2022/05/07 06:46:04;;;;;;;39.13;27.92;;;14.80;99.90;;;;;;5032716;28;20041;-81
2022/05/07 06:48:30;;;;;;;36.50;26.55;;;15.00;99.90;;;;;;5030583;28;20048;-80
2022/05/07 06:50:56;;;;;;;34.00;24.92;;;15.00;99.90;;;;;;5047702;28;20136;-80
2022/05/07 06:53:22;;;;;;;37.15;23.50;;;15.10;99.90;;;;;;5020919;28;20059;-81
2022/05/07 06:56:03;;;;;;;36.00;25.27;;;15.10;99.90;;;;;;5037966;28;20124;-78
2022/05/07 06:58:30;;;;;;;39.40;27.02;;;15.20;99.90;;;;;;5016822;28;20052;-77
2022/05/07 07:00:57;;;;;;;38.10;25.00;;;15.20;99.90;;;;;;5043842;28;20503;-77
2022/05/07 07:03:24;;;;;;;36.95;24.95;;;15.30;99.90;;;;;;5039977;28;20064;-78
2022/05/07 07:05:50;;;;;;;39.42;26.95;;;15.40;99.90;;;;;;5020480;28;20085;-77
2022/05/07 07:08:17;;;;;;;41.30;26.65;;;15.70;99.90;;;;;;5029654;28;20439;-77
2022/05/07 07:10:42;;;;;;;39.22;28.52;;;15.50;99.90;;;;;;5021098;28;20083;-79
2022/05/07 07:13:09;;;;;;;42.33;26.80;;;15.60;99.90;;;;;;5049466;28;20061;-77
2022/05/07 07:15:36;;;;;;;38.72;27.13;;;15.60;99.90;;;;;;5046083;28;20453;-77
2022/05/07 07:18:04;;;;;;;41.78;27.35;;;15.70;99.90;;;;;;5031692;28;20045;-78
2022/05/07 07:20:30;;;;;;;41.70;26.95;;;15.70;99.90;;;;;;5028039;28;20054;-76
2022/05/07 07:22:56;;;;;;;46.67;27.45;;;15.80;99.90;;;;;;5029064;28;20077;-77
2022/05/07 07:25:22;;;;;;;42.47;27.27;;;15.80;99.90;;;;;;5027516;28;20441;-78
2022/05/07 07:27:47;;;;;;;42.88;26.60;;;15.90;99.90;;;;;;5045496;28;20080;-77
2022/05/07 07:30:13;;;;;;;41.58;27.38;;;15.90;99.90;;;;;;5035305;28;20040;-78
2022/05/07 07:32:39;;;;;;;48.15;30.42;;;16.00;99.90;;;;;;5032666;28;20069;-79
2022/05/07 07:35:05;;;;;;;42.90;28.48;;;16.20;99.90;;;;;;5035041;28;20481;-77
2022/05/07 07:37:34;;;;;;;46.67;29.63;;;16.10;99.90;;;;;;5020683;28;20051;-77
2022/05/07 07:40:01;;;;;;;39.38;27.60;;;16.20;99.90;;;;;;5018003;28;20037;-78
2022/05/07 07:42:27;;;;;;;46.88;29.73;;;16.20;99.90;;;;;;5024800;28;20065;-78
2022/05/07 07:50:23;;;;;;;35.97;22.48;;;16.40;99.90;;;;;;5043397;28;20124;-79
2022/05/07 07:52:57;;;;;;;32.13;21.13;;;16.40;99.90;;;;;;5022090;28;20059;-77
2022/05/07 07:55:23;;;;;;;33.53;22.85;;;16.40;99.90;;;;;;5037959;28;20521;-78
2022/05/07 07:57:52;;;;;;;27.00;20.95;;;16.40;99.90;;;;;;5026397;28;20112;-79
2022/05/07 08:00:17;;;;;;;39.72;23.92;;;16.40;99.90;;;;;;5022283;28;20594;-79
2022/05/07 08:02:51;;;;;;;31.35;23.23;;;16.40;99.90;;;;;;5031493;28;20057;-79
2022/05/07 08:05:20;;;;;;;32.28;22.05;;;16.50;99.90;;;;;;5030740;28;20089;-78
2022/05/07 08:13:21;;;;;;;38.92;27.33;;;16.50;99.90;;;;;;5026270;28;20045;-80
2022/05/07 08:15:47;;;;;;;46.10;29.50;;;16.60;99.90;;;;;;5028744;28;20095;-79
2022/05/07 08:18:13;;;;;;;47.13;30.60;;;16.60;99.90;;;;;;5010169;28;20037;-79
2022/05/07 08:20:41;;;;;;;46.08;29.75;;;16.60;99.90;;;;;;5027902;28;20046;-80
2022/05/07 08:23:07;;;;;;;48.40;30.70;;;16.60;99.90;;;;;;5027952;28;20049;-80
2022/05/07 08:25:33;;;;;;;44.38;30.65;;;16.60;99.90;;;;;;5029221;28;20041;-80
2022/05/07 08:27:59;;;;;;;42.88;31.20;;;16.60;99.90;;;;;;5026384;28;20708;-80
2022/05/07 08:30:24;;;;;;;41.33;29.73;;;16.60;99.90;;;;;;5039589;28;20131;-79
2022/05/07 08:32:51;;;;;;;46.70;30.65;;;16.60;99.90;;;;;;5051722;28;20143;-79
2022/05/07 08:35:17;;;;;;;43.45;29.48;;;16.60;99.90;;;;;;5051458;28;20106;-79
2022/05/07 08:37:43;;;;;;;42.45;29.45;;;16.40;99.90;;;;;;5051937;28;20476;-78
2022/05/07 08:40:09;;;;;;;51.15;30.15;;;16.60;99.90;;;;;;5050710;28;20061;-79
2022/05/07 08:42:38;;;;;;;50.90;31.35;;;16.60;99.90;;;;;;5030594;28;20057;-79
2022/05/07 08:45:04;;;;;;;44.88;29.15;;;16.60;99.90;;;;;;5032003;28;20068;-78
2022/05/07 08:47:29;;;;;;;42.10;29.02;;;16.60;99.90;;;;;;5013629;28;20072;-79
2022/05/07 08:49:57;;;;;;;51.03;30.73;;;16.60;99.90;;;;;;5031378;28;20465;-80
2022/05/07 08:52:23;;;;;;;48.28;30.48;;;16.60;99.90;;;;;;5036927;28;20399;-79
2022/05/07 08:54:49;;;;;;;49.90;30.42;;;16.60;99.90;;;;;;5050938;28;20565;-79
2022/05/07 08:57:17;;;;;;;47.90;31.10;;;16.70;99.90;;;;;;5032174;28;20143;-79
2022/05/07 08:59:44;;;;;;;48.25;29.33;;;16.80;99.90;;;;;;5032594;28;20079;-79
2022/05/07 09:02:10;;;;;;;43.95;27.05;;;16.80;99.90;;;;;;5050395;28;20171;-78
2022/05/07 09:04:39;;;;;;;40.92;26.63;;;16.90;99.90;;;;;;5050766;28;20500;-79
2022/05/07 09:07:14;;;;;;;38.40;25.90;;;16.90;99.90;;;;;;5029586;28;20124;-79
2022/05/07 09:09:50;;;;;;;36.70;24.58;;;17.10;99.90;;;;;;5031725;28;20057;-79
2022/05/07 09:12:29;;;;;;;34.70;24.48;;;17.10;99.90;;;;;;5043972;28;20306;-80
2022/05/07 09:15:02;;;;;;;40.63;27.00;;;17.10;99.90;;;;;;5033687;28;20526;-79
2022/05/07 09:17:28;;;;;;;35.80;25.77;;;17.00;99.90;;;;;;5048673;28;20056;-80
2022/05/07 09:19:54;;;;;;;37.72;25.25;;;17.00;99.90;;;;;;5051350;28;20044;-80
2022/05/07 09:22:19;;;;;;;34.78;23.33;;;17.10;99.90;;;;;;5048890;28;20098;-80
2022/05/07 09:24:58;;;;;;;35.30;23.73;;;17.10;99.90;;;;;;5050621;28;20053;-80
2022/05/07 09:27:24;;;;;;;41.25;24.20;;;17.20;99.90;;;;;;5048271;28;20049;-79
2022/05/07 09:30:02;;;;;;;48.25;24.30;;;17.20;99.90;;;;;;5051096;28;20459;-80
2022/05/07 09:32:38;;;;;;;37.28;22.60;;;17.30;99.90;;;;;;5049805;28;20049;-78
2022/05/07 09:38:00;;;;;;;32.70;23.38;;;17.40;99.90;;;;;;5045951;28;20140;-79
2022/05/07 09:40:30;;;;;;;30.95;21.58;;;17.50;99.90;;;;;;5032210;28;20378;-78
2022/05/07 09:42:59;;;;;;;31.40;21.80;;;17.50;99.90;;;;;;5040501;28;20036;-79
2022/05/07 09:45:26;;;;;;;38.85;23.13;;;17.50;99.90;;;;;;5048561;28;20500;-78
2022/05/07 09:47:55;;;;;;;32.47;22.77;;;17.60;99.90;;;;;;5030362;28;20546;-79
2022/05/07 09:50:23;;;;;;;41.47;23.65;;;17.50;99.90;;;;;;5045550;28;20045;-79
2022/05/07 09:58:20;;;;;;;43.65;27.52;;;17.60;99.90;;;;;;5048855;28;20125;-79
2022/05/07 10:00:48;;;;;;;36.55;26.30;;;17.70;99.90;;;;;;5051925;28;20036;-78
2022/05/07 10:03:27;;;;;;;43.08;26.40;;;17.70;99.90;;;;;;5048904;28;20060;-79
2022/05/07 10:06:22;;;;;;;37.88;26.00;;;17.80;99.90;;;;;;5033415;28;20045;-79
2022/05/07 10:09:06;;;;;;;37.05;24.38;;;17.80;99.90;;;;;;4994166;28;20079;-78
2022/05/07 10:11:32;;;;;;;35.72;25.10;;;17.90;99.90;;;;;;5045188;28;20060;-78
2022/05/07 10:13:58;;;;;;;45.53;26.17;;;17.90;99.90;;;;;;5027779;28;20096;-79
2022/05/07 10:16:29;;;;;;;39.55;27.52;;;18.00;99.90;;;;;;5047499;28;20084;-78
2022/05/07 10:18:55;;;;;;;;;;;18.10;99.90;;;;;;5030538;28;20073;-78
2022/05/07 10:21:21;;;;;;;45.10;27.10;;;18.20;99.90;;;;;;5036720;28;19925;-78
2022/05/07 10:23:51;;;;;;;41.70;27.70;;;18.20;99.90;;;;;;5050243;28;20037;-79
2022/05/07 10:26:17;;;;;;;40.72;27.77;;;18.40;99.90;;;;;;5048041;28;20055;-80
2022/05/07 10:28:43;;;;;;;43.85;26.05;;;18.40;99.90;;;;;;5042451;28;20152;-80
2022/05/07 10:31:21;;;;;;;43.63;27.50;;;18.50;99.90;;;;;;5048479;28;20120;-80
2022/05/07 10:33:48;;;;;;;39.85;26.27;;;18.50;99.90;;;;;;5038849;28;20037;-79
2022/05/07 10:36:15;;;;;;;42.10;25.73;;;18.50;99.90;;;;;;5025629;28;20060;-78
2022/05/07 10:38:42;;;;;;;43.90;26.40;;;18.50;99.90;;;;;;5048018;28;20370;-79
2022/05/07 10:41:17;;;;;;;44.15;25.85;;;18.60;99.90;;;;;;5042074;28;20429;-82
2022/05/07 10:43:46;;;;;;;40.42;25.77;;;18.50;99.90;;;;;;5024784;28;20052;-78
2022/05/07 10:46:19;;;;;;;37.95;25.48;;;18.40;99.90;;;;;;5046235;28;20040;-79
2022/05/07 10:48:46;;;;;;;41.60;27.45;;;18.40;99.90;;;;;;5024685;28;20065;-79
2022/05/07 10:51:19;;;;;;;38.25;25.58;;;18.20;99.90;;;;;;5026344;28;20106;-79
2022/05/07 10:53:45;;;;;;;44.47;25.67;;;18.10;99.90;;;;;;5048298;28;20060;-78
2022/05/07 10:56:20;;;;;;;36.47;24.67;;;18.00;99.90;;;;;;5046802;28;20360;-78
2022/05/07 10:58:47;;;;;;;38.67;23.08;;;18.00;99.90;;;;;;5025037;28;20052;-79
2022/05/07 11:01:14;;;;;;;31.92;21.50;;;17.90;99.90;;;;;;5047579;28;20041;-78
2022/05/07 11:03:40;;;;;;;35.45;21.38;;;17.90;99.90;;;;;;5041629;28;20060;-77
2022/05/07 11:06:06;;;;;;;30.75;21.73;;;17.90;99.90;;;;;;5016241;28;20033;-78
2022/05/07 11:08:31;;;;;;;32.53;20.67;;;17.90;99.90;;;;;;5045334;28;20075;-78
2022/05/07 11:11:08;;;;;;;30.02;20.58;;;17.90;99.90;;;;;;5026566;28;20408;-80
2022/05/07 11:14:06;;;;;;;34.17;19.60;;;17.90;99.90;;;;;;5057639;28;20094;-79
2022/05/07 11:16:31;;;;;;;31.08;20.25;;;17.80;99.90;;;;;;5006773;28;20068;-78
2022/05/07 11:18:57;;;;;;;28.77;18.55;;;17.80;99.90;;;;;;5028761;28;20037;-79
2022/05/07 11:21:25;;;;;;;29.27;17.42;;;17.70;99.90;;;;;;5028631;28;20136;-79
2022/05/07 11:23:58;;;;;;;27.48;17.75;;;17.60;99.90;;;;;;5034808;28;20173;-78
2022/05/07 11:26:24;;;;;;;25.45;16.17;;;17.60;99.90;;;;;;5068398;28;20040;-77
2022/05/07 11:28:51;;;;;;;36.55;16.42;;;17.50;99.90;;;;;;5041241;28;20049;-77
2022/05/07 11:31:33;;;;;;;23.23;14.50;;;17.50;99.90;;;;;;5046434;28;20131;-78
2022/05/07 11:34:07;;;;;;;18.08;13.25;;;17.40;99.90;;;;;;5050221;28;20449;-79
2022/05/07 11:36:34;;;;;;;18.02;12.60;;;17.50;99.90;;;;;;5059035;28;20429;-78
2022/05/07 11:39:02;;;;;;;20.35;12.05;;;17.50;99.90;;;;;;5030255;28;20044;-78
2022/05/07 11:41:28;;;;;;;19.65;13.30;;;17.50;99.90;;;;;;5029323;28;20079;-78
2022/05/07 11:46:51;;;;;;;13.73;8.85;;;17.70;99.90;;;;;;5045868;28;20053;-80
2022/05/07 11:49:33;;;;;;;16.10;8.48;;;17.70;99.90;;;;;;5048678;28;20124;-80
2022/05/07 11:52:10;;;;;;;13.93;8.35;;;17.60;99.90;;;;;;5017761;28;20049;-78
2022/05/07 11:54:36;;;;;;;11.13;7.93;;;17.60;99.90;;;;;;5029296;28;20045;-78
2022/05/07 11:57:03;;;;;;;14.57;7.35;;;17.50;99.90;;;;;;5030956;28;20322;-79
2022/05/07 11:59:29;;;;;;;12.45;8.73;;;17.50;99.90;;;;;;5047183;28;20083;-78
2022/05/07 12:01:55;;;;;;;14.73;7.80;;;17.50;99.90;;;;;;5048041;28;20465;-80
2022/05/07 12:04:30;;;;;;;13.85;7.95;;;17.50;99.90;;;;;;5030154;28;20096;-78
2022/05/07 12:06:56;;;;;;;11.95;7.68;;;17.50;99.90;;;;;;5044856;28;20053;-80
2022/05/07 12:09:22;;;;;;;12.45;8.38;;;17.40;99.90;;;;;;5047230;28;20529;-79
2022/05/07 12:11:49;;;;;;;17.45;8.70;;;17.50;99.90;;;;;;5044244;28;20045;-78
2022/05/07 12:14:14;;;;;;;36.08;8.63;;;17.50;99.90;;;;;;5023889;28;20129;-80
2022/05/07 12:19:33;;;;;;;23.85;10.02;;;17.60;99.90;;;;;;5041625;28;20457;-78
2022/05/07 12:30:12;;;;;;;11.85;8.00;;;17.40;99.90;;;;;;5030998;28;20136;-79
2022/05/07 12:32:39;;;;;;;12.48;8.30;;;17.50;99.90;;;;;;5018186;28;20056;-80
2022/05/07 12:35:06;;;;;;;11.65;7.93;;;17.50;99.90;;;;;;5033436;28;20044;-79
2022/05/07 12:37:33;;;;;;;16.13;9.00;;;17.60;99.90;;;;;;5051986;28;20044;-80
2022/05/07 12:39:59;;;;;;;14.63;8.75;;;17.60;99.90;;;;;;5051184;28;20098;-81
2022/05/07 12:42:24;;;;;;;16.40;10.80;;;17.70;99.90;;;;;;5050905;28;20135;-80
2022/05/07 12:44:50;;;;;;;16.58;11.48;;;17.70;99.90;;;;;;5034253;28;20045;-79
2022/05/07 12:47:19;;;;;;;14.68;11.30;;;17.70;99.90;;;;;;5032529;28;20205;-80
2022/05/07 12:49:45;;;;;;;20.55;13.25;;;17.70;99.90;;;;;;5052344;28;20377;-78
2022/05/07 12:52:10;;;;;;;21.20;15.48;;;17.70;99.90;;;;;;5051436;28;20561;-80
2022/05/07 12:54:37;;;;;;;24.25;16.35;;;17.60;99.90;;;;;;5033364;28;20124;-79
2022/05/07 12:57:03;;;;;;;28.65;16.75;;;17.60;99.90;;;;;;5051018;28;20471;-79
2022/05/07 12:59:30;;;;;;;30.42;18.30;;;17.60;99.90;;;;;;5034710;28;20465;-79
2022/05/07 13:01:57;;;;;;;29.92;15.32;;;17.50;99.90;;;;;;5029537;28;20064;-80
2022/05/07 13:04:25;;;;;;;20.75;14.60;;;17.40;99.90;;;;;;5042894;28;20089;-79
2022/05/07 13:06:51;;;;;;;30.63;13.38;;;17.50;99.90;;;;;;5043312;28;20087;-79
2022/05/07 13:09:17;;;;;;;15.15;10.77;;;17.50;99.90;;;;;;5044136;28;20390;-80
2022/05/07 13:11:43;;;;;;;15.35;10.30;;;17.60;99.90;;;;;;5044880;28;20060;-80
2022/05/07 13:14:10;;;;;;;13.55;9.23;;;17.70;99.90;;;;;;5036344;28;20345;-82
2022/05/07 13:16:35;;;;;;;15.75;9.32;;;17.80;99.90;;;;;;5033493;28;20036;-81